Time;durP1;ratioP1;P1;durP2;ratioP2;P2;SDS_P1;SDS_P2;PMS_P1;PMS_P2;Temp;Humidity;BMP_temperature;BMP_pressure;BME280_temperature;BME280_humidity;BME280_pressure;Samples;Min_cycle;Max_cycle;Signal;HPM_P1;HPM_P2
2023/02/06 00:00:27;;;;;;;;;;;;;;;16.18;37.05;101439.31;4949271;28;1133;-42
2023/02/06 00:02:52;;;;;;;;;;;;;;;15.71;37.95;101429.63;4963872;28;1915;-44
2023/02/06 00:05:18;;;;;;;;;;;;;;;15.43;38.53;101432.44;4961291;28;1156;-44
2023/02/06 00:07:43;;;;;;;;;;;;;;;16.34;36.53;101415.66;4960599;28;1065;-42
2023/02/06 00:10:09;;;;;;;;;;;;;;;17.43;34.67;101425.78;4960994;28;1121;-41
2023/02/06 00:12:34;;;;;;;;;;;;;;;16.75;35.58;101410.59;4960753;28;1161;-43
2023/02/06 00:15:00;;;;;;;;;;;;;;;16.03;37.26;101409.78;4971242;28;1026;-41
2023/02/06 00:17:25;;;;;;;;;;;;;;;15.68;37.76;101407.34;4961031;28;1141;-42
2023/02/06 00:19:51;;;;;;;;;;;;;;;15.44;38.15;101396.56;4960633;28;1228;-47
2023/02/06 00:22:16;;;;;;;;;;;;;;;16.95;35.43;101392.69;4960708;28;1961;-47
2023/02/06 00:24:41;;;;;;;;;;;;;;;17.61;33.96;101384.13;4973314;28;1137;-44
2023/02/06 00:27:07;;;;;;;;;;;;;;;16.39;36.21;101391.00;4964846;28;898;-45
2023/02/06 00:29:32;;;;;;;;;;;;;;;15.86;37.42;101389.81;4960832;28;1169;-44
2023/02/06 00:31:58;;;;;;;;;;;;;;;15.55;38.13;101392.09;4943320;29;1263;-40
2023/02/06 00:34:23;;;;;;;;;;;;;;;16.27;36.51;101403.22;4960580;28;1058;-42
2023/02/06 00:36:50;;;;;;;;;;;;;;;17.45;34.25;101398.88;4959056;28;1318;-43
2023/02/06 00:39:19;;;;;;;;;;;;;;;16.62;35.86;101394.56;4943910;29;1573;-41
2023/02/06 00:41:44;;;;;;;;;;;;;;;15.95;37.16;101396.53;4948152;28;1976;-45
2023/02/06 00:44:10;;;;;;;;;;;;;;;15.66;37.79;101393.88;4960397;28;1224;-46
2023/02/06 00:46:35;;;;;;;;;;;;;;;16.19;36.56;101388.84;4942934;29;1289;-41
2023/02/06 00:49:01;;;;;;;;;;;;;;;17.44;34.12;101395.28;4960600;28;1142;-45
2023/02/06 00:51:27;;;;;;;;;;;;;;;17.02;34.81;101387.81;4960051;28;835;-41
2023/02/06 00:53:52;;;;;;;;;;;;;;;16.19;36.53;101396.28;4942469;28;1165;-43
2023/02/06 00:56:18;;;;;;;;;;;;;;;15.78;37.20;101380.09;4960243;28;1105;-43
2023/02/06 00:58:45;;;;;;;;;;;;;;;15.51;37.93;101386.25;4974589;28;1275;-45
2023/02/06 01:01:10;;;;;;;;;;;;;;;16.67;35.77;101380.03;4959956;28;1977;-46
2023/02/06 01:03:37;;;;;;;;;;;;;;;17.60;33.68;101368.72;4959670;28;1105;-44
2023/02/06 01:06:03;;;;;;;;;;;;;;;16.43;35.92;101374.84;4960094;28;1054;-42
2023/02/06 01:08:28;;;;;;;;;;;;;;;15.89;37.22;101375.56;4959797;28;1058;-43
2023/02/06 01:10:53;;;;;;;;;;;;;;;15.62;37.36;101375.47;4942487;29;1148;-42
2023/02/06 01:13:19;;;;;;;;;;;;;;;16.51;35.83;101382.63;4959840;28;1144;-42
2023/02/06 01:15:44;;;;;;;;;;;;;;;17.57;34.03;101355.50;4966559;28;1137;-42
2023/02/06 01:18:10;;;;;;;;;;;;;;;16.50;35.56;101359.00;4960095;28;1074;-42
2023/02/06 01:20:39;;;;;;;;;;;;;;;15.90;36.75;101378.06;4959710;28;1020;-47
2023/02/06 01:23:04;;;;;;;;;;;;;;;15.65;37.49;101383.19;4959373;28;1981;-43
2023/02/06 01:25:29;;;;;;;;;;;;;;;16.96;35.00;101374.28;4942423;29;1595;-44
2023/02/06 01:27:55;;;;;;;;;;;;;;;17.18;34.30;101374.19;4959992;28;879;-41
2023/02/06 01:30:21;;;;;;;;;;;;;;;16.20;36.39;101386.94;4959652;28;1082;-41
2023/02/06 01:32:48;;;;;;;;;;;;;;;15.77;36.90;101385.78;4959372;28;1129;-42
2023/02/06 01:35:14;;;;;;;;;;;;;;;15.60;37.33;101397.66;4959613;28;1082;-45
2023/02/06 01:37:39;;;;;;;;;;;;;;;17.17;34.65;101383.53;4941903;28;1177;-46
2023/02/06 01:40:06;;;;;;;;;;;;;;;17.49;33.86;101390.91;4949510;29;1571;-44
2023/02/06 01:42:34;;;;;;;;;;;;;;;16.37;35.78;101397.84;4958975;28;1906;-44
2023/02/06 01:45:19;;;;;;;;;;;;;;;15.90;36.63;101404.66;4941880;29;1155;-43
2023/02/06 01:47:44;;;;;;;;;;;;;;;15.60;37.38;101388.56;4958842;28;1030;-41
2023/02/06 01:50:09;;;;;;;;;;;;;;;16.09;36.52;101380.50;4959589;28;1155;-43
2023/02/06 01:52:35;;;;;;;;;;;;;;;17.39;34.04;101378.75;4960579;28;983;-43
2023/02/06 01:55:01;;;;;;;;;;;;;;;17.66;33.33;101375.06;4925619;29;1152;-45
2023/02/06 01:57:27;;;;;;;;;;;;;;;16.43;35.46;101386.66;4941421;28;1376;-44
2023/02/06 01:59:53;;;;;;;;;;;;;;;15.94;36.72;101385.81;4959190;28;1097;-42
2023/02/06 02:02:20;;;;;;;;;;;;;;;15.67;37.26;101384.59;4925491;28;1910;-43
2023/02/06 02:04:45;;;;;;;;;;;;;;;15.44;37.71;101390.28;4950575;29;1014;-46
2023/02/06 02:07:11;;;;;;;;;;;;;;;16.89;34.94;101380.84;4941714;28;1050;-42
2023/02/06 02:09:36;;;;;;;;;;;;;;;17.60;33.60;101373.41;4958322;28;1077;-44
2023/02/06 02:12:02;;;;;;;;;;;;;;;16.39;35.58;101373.72;4941717;28;1237;-39
2023/02/06 02:14:27;;;;;;;;;;;;;;;15.92;36.57;101369.56;4958505;28;1117;-44
2023/02/06 02:17:05;;;;;;;;;;;;;;;15.61;37.09;101376.53;4943739;28;1325;-45
2023/02/06 02:19:34;;;;;;;;;;;;;;;16.30;36.14;101367.84;4925427;29;1205;-40
2023/02/06 02:22:34;;;;;;;;;;;;;;;17.53;33.78;101375.53;4962812;28;1966;-41
2023/02/06 02:25:21;;;;;;;;;;;;;;;16.60;35.29;101370.06;4921333;29;1252;-44
2023/02/06 02:28:02;;;;;;;;;;;;;;;15.93;36.57;101368.50;4931824;28;2496;-46
2023/02/06 02:30:36;;;;;;;;;;;;;;;15.57;37.07;101381.69;4945818;28;1231;-43
2023/02/06 02:33:15;;;;;;;;;;;;;;;15.60;37.18;101377.59;4958599;28;1058;-44
2023/02/06 02:35:43;;;;;;;;;;;;;;;17.22;34.06;101380.81;4941069;29;1122;-41
2023/02/06 02:38:18;;;;;;;;;;;;;;;16.76;34.79;101379.31;4958023;28;1136;-40
2023/02/06 02:40:54;;;;;;;;;;;;;;;15.99;36.44;101385.84;4945292;29;1183;-43
2023/02/06 02:43:19;;;;;;;;;;;;;;;15.62;36.91;101381.75;4925384;29;1990;-43
2023/02/06 02:45:47;;;;;;;;;;;;;;;16.72;35.15;101393.84;4940847;28;1093;-43
2023/02/06 02:48:18;;;;;;;;;;;;;;;17.62;33.49;101379.44;4925059;29;1090;-41
2023/02/06 02:50:45;;;;;;;;;;;;;;;16.40;35.54;101395.41;4925527;28;1224;-44
2023/02/06 02:53:11;;;;;;;;;;;;;;;15.89;36.60;101392.88;4951280;29;1263;-43
2023/02/06 02:55:36;;;;;;;;;;;;;;;15.62;36.81;101390.00;4924904;28;1268;-40
2023/02/06 02:58:07;;;;;;;;;;;;;;;16.86;34.81;101399.75;4941156;28;1422;-45
2023/02/06 03:00:33;;;;;;;;;;;;;;;17.44;33.41;101395.28;4961780;28;1066;-41
2023/02/06 03:03:00;;;;;;;;;;;;;;;16.30;35.56;101403.53;4929869;28;1914;-46
2023/02/06 03:05:26;;;;;;;;;;;;;;;15.84;36.42;101400.22;4948915;28;1239;-41
2023/02/06 03:08:02;;;;;;;;;;;;;;;15.60;37.01;101400.38;4944447;29;1223;-43
2023/02/06 03:10:46;;;;;;;;;;;;;;;16.45;35.28;101413.84;4944688;29;1847;-43
2023/02/06 03:13:32;;;;;;;;;;;;;;;17.62;33.08;101390.44;4962194;28;1069;-46
2023/02/06 03:15:57;;;;;;;;;;;;;;;16.54;34.93;101404.06;4983536;28;1170;-43
2023/02/06 03:18:24;;;;;;;;;;;;;;;16.00;36.25;101399.31;4965763;28;1037;-43
2023/02/06 03:20:49;;;;;;;;;;;;;;;15.67;36.78;101409.25;4944536;29;1106;-44
2023/02/06 03:23:19;;;;;;;;;;;;;;;15.77;36.41;101403.09;4960160;28;1994;-45
2023/02/06 03:25:45;;;;;;;;;;;;;;;17.26;33.67;101399.28;4948359;29;1201;-44
2023/02/06 03:28:13;;;;;;;;;;;;;;;16.90;34.20;101389.88;4966524;28;1035;-48
2023/02/06 03:30:40;;;;;;;;;;;;;;;16.06;36.06;101412.03;4944433;29;1058;-44
2023/02/06 03:33:06;;;;;;;;;;;;;;;15.72;36.48;101409.34;4961625;28;1165;-44
2023/02/06 03:35:33;;;;;;;;;;;;;;;15.52;37.12;101409.03;4961620;28;1053;-41
2023/02/06 03:37:58;;;;;;;;;;;;;;;17.02;34.38;101415.28;4961209;28;1090;-41
2023/02/06 03:40:24;;;;;;;;;;;;;;;17.09;33.94;101404.09;4953911;28;1138;-41
2023/02/06 03:42:50;;;;;;;;;;;;;;;16.13;35.86;101398.13;4979331;28;2043;-39
2023/02/06 03:45:22;;;;;;;;;;;;;;;15.74;36.60;101407.16;4961218;28;1148;-39
2023/02/06 03:47:47;;;;;;;;;;;;;;;15.47;37.12;101389.75;4961303;28;1116;-37
2023/02/06 03:50:13;;;;;;;;;;;;;;;16.82;34.31;101404.91;4961604;28;1034;-40
2023/02/06 03:52:38;;;;;;;;;;;;;;;17.69;32.70;101391.03;4950145;28;1165;-42
2023/02/06 03:55:06;;;;;;;;;;;;;;;16.43;35.18;101402.31;4944278;29;1208;-41
2023/02/06 03:57:31;;;;;;;;;;;;;;;15.90;36.13;101407.41;4943881;29;1126;-40
2023/02/06 03:59:57;;;;;;;;;;;;;;;15.60;36.73;101424.22;4944075;29;1118;-40
2023/02/06 04:02:23;;;;;;;;;;;;;;;15.72;36.54;101403.00;4960967;28;1910;-40
2023/02/06 04:04:48;;;;;;;;;;;;;;;17.16;33.75;101401.94;4960644;28;1121;-46
2023/02/06 04:07:17;;;;;;;;;;;;;;;17.63;32.60;101416.88;4960580;28;1054;-46
2023/02/06 04:09:43;;;;;;;;;;;;;;;16.31;34.89;101420.81;4943674;28;1054;-46
2023/02/06 04:12:08;;;;;;;;;;;;;;;15.88;35.63;101434.28;4960325;28;1030;-45
2023/02/06 04:14:35;;;;;;;;;;;;;;;15.61;36.29;101412.19;4959623;29;1264;-46
2023/02/06 04:17:04;;;;;;;;;;;;;;;15.42;36.70;101442.59;4967564;28;1097;-44
2023/02/06 04:19:29;;;;;;;;;;;;;;;16.97;33.88;101436.38;4960648;28;1280;-48
2023/02/06 04:21:54;;;;;;;;;;;;;;;17.73;32.41;101432.59;4960231;28;1974;-49
2023/02/06 04:24:20;;;;;;;;;;;;;;;16.42;34.54;101442.66;4960995;28;1232;-45
2023/02/06 04:26:45;;;;;;;;;;;;;;;15.92;35.70;101446.38;4960911;28;1189;-44
2023/02/06 04:29:11;;;;;;;;;;;;;;;15.61;36.11;101445.88;4961613;28;876;-45
2023/02/06 04:31:37;;;;;;;;;;;;;;;16.24;35.19;101453.94;4960764;28;1153;-41
2023/02/06 04:34:02;;;;;;;;;;;;;;;17.43;32.77;101459.63;4960776;28;1205;-46
2023/02/06 04:36:28;;;;;;;;;;;;;;;16.83;33.56;101438.69;4960118;28;1114;-42
2023/02/06 04:38:53;;;;;;;;;;;;;;;16.11;34.96;101444.16;4960909;28;1074;-44
2023/02/06 04:41:19;;;;;;;;;;;;;;;15.76;35.69;101458.19;4968246;28;1983;-44
2023/02/06 04:43:44;;;;;;;;;;;;;;;15.51;36.29;101424.63;4943463;29;1141;-48
2023/02/06 04:46:09;;;;;;;;;;;;;;;16.52;34.46;101438.34;4960456;28;1221;-45
2023/02/06 04:48:35;;;;;;;;;;;;;;;17.53;32.54;101442.38;4960471;28;1149;-48
2023/02/06 04:51:01;;;;;;;;;;;;;;;16.42;34.46;101456.38;4959764;28;1363;-46
2023/02/06 04:53:26;;;;;;;;;;;;;;;15.87;35.42;101449.06;4960741;28;940;-48
2023/02/06 04:55:53;;;;;;;;;;;;;;;15.61;35.76;101459.59;4960164;28;1042;-45
2023/02/06 04:58:19;;;;;;;;;;;;;;;16.36;34.72;101449.16;4970675;28;1066;-47
2023/02/06 05:00:44;;;;;;;;;;;;;;;17.45;32.59;101449.19;4978974;28;1092;-48
2023/02/06 05:03:10;;;;;;;;;;;;;;;16.71;33.62;101450.66;4978438;28;1915;-46
2023/02/06 05:05:35;;;;;;;;;;;;;;;15.96;35.13;101461.25;4966637;28;863;-46
2023/02/06 05:08:00;;;;;;;;;;;;;;;15.64;35.62;101477.47;4967804;28;1025;-46
2023/02/06 05:10:26;;;;;;;;;;;;;;;15.70;35.57;101501.97;4971128;28;1117;-46
2023/02/06 05:12:51;;;;;;;;;;;;;;;17.18;33.13;101508.84;4964759;28;2020;-48
2023/02/06 05:15:17;;;;;;;;;;;;;;;17.26;32.55;101498.25;4978283;28;1009;-45
2023/02/06 05:17:42;;;;;;;;;;;;;;;16.17;34.59;101500.78;4977611;28;1121;-45
2023/02/06 05:20:08;;;;;;;;;;;;;;;15.78;35.43;101500.75;4977969;28;1106;-49
2023/02/06 05:22:33;;;;;;;;;;;;;;;15.54;35.88;101503.66;4975482;28;1902;-47
2023/02/06 05:24:59;;;;;;;;;;;;;;;16.29;34.51;101500.66;4978455;28;1018;-43
2023/02/06 05:27:24;;;;;;;;;;;;;;;17.47;32.50;101503.09;4973503;28;1057;-45
2023/02/06 05:29:50;;;;;;;;;;;;;;;16.59;33.91;101497.50;4969227;28;855;-47
2023/02/06 05:32:17;;;;;;;;;;;;;;;15.99;34.95;101512.03;4965036;28;1106;-44
2023/02/06 05:34:42;;;;;;;;;;;;;;;15.58;35.72;101498.47;4977704;28;1025;-41
2023/02/06 05:37:07;;;;;;;;;;;;;;;16.72;33.78;101487.22;4965287;28;1124;-46
2023/02/06 05:39:33;;;;;;;;;;;;;;;17.62;32.29;101500.47;4967131;28;1077;-46
2023/02/06 05:41:58;;;;;;;;;;;;;;;16.44;33.99;101491.81;4974600;28;1923;-47
2023/02/06 05:44:24;;;;;;;;;;;;;;;15.93;34.98;101493.84;4977846;28;1021;-48
2023/02/06 05:46:49;;;;;;;;;;;;;;;15.59;35.78;101491.94;4965013;28;1291;-44
2023/02/06 05:49:15;;;;;;;;;;;;;;;16.44;34.48;101489.06;4977932;28;1025;-47
2023/02/06 05:51:40;;;;;;;;;;;;;;;17.49;32.47;101500.88;4977516;28;1156;-53
2023/02/06 05:54:05;;;;;;;;;;;;;;;16.51;34.12;101492.44;4979103;28;838;-44
2023/02/06 05:56:31;;;;;;;;;;;;;;;15.90;35.22;101500.66;4977251;28;1053;-49
2023/02/06 05:58:56;;;;;;;;;;;;;;;15.60;35.77;101506.44;4974950;28;2074;-47
2023/02/06 06:01:22;;;;;;;;;;;;;;;16.53;34.29;101505.91;4969132;28;1902;-44
2023/02/06 06:03:47;;;;;;;;;;;;;;;17.58;32.09;101493.81;4959992;28;1159;-44
2023/02/06 06:06:13;;;;;;;;;;;;;;;16.56;33.79;101514.47;4971084;28;875;-43
2023/02/06 06:08:38;;;;;;;;;;;;;;;15.97;35.14;101514.22;4964453;28;1106;-47
2023/02/06 06:11:03;;;;;;;;;;;;;;;15.66;35.71;101510.97;4977144;28;1133;-43
2023/02/06 06:13:29;;;;;;;;;;;;;;;16.60;34.06;101517.53;4976170;28;1022;-48
2023/02/06 06:15:54;;;;;;;;;;;;;;;17.62;32.29;101505.97;4977299;28;1073;-47
2023/02/06 06:18:20;;;;;;;;;;;;;;;16.48;34.30;101530.53;4976551;28;847;-52
2023/02/06 06:20:45;;;;;;;;;;;;;;;16.54;33.90;101518.56;4977077;28;1010;-48
2023/02/06 06:23:11;;;;;;;;;;;;;;;15.95;35.27;101517.19;4975245;28;1911;-48
2023/02/06 06:25:36;;;;;;;;;;;;;;;15.50;36.16;101526.31;4966337;28;1188;-48
2023/02/06 06:28:02;;;;;;;;;;;;;;;16.72;34.05;101540.19;4968591;28;1848;-49
2023/02/06 06:30:27;;;;;;;;;;;;;;;15.73;35.46;101541.78;4968979;28;904;-48
2023/02/06 06:32:53;;;;;;;;;;;;;;;15.36;36.34;101542.22;4970294;28;1209;-45
2023/02/06 06:35:18;;;;;;;;;;;;;;;16.36;34.13;101545.22;4965587;28;1154;-46
2023/02/06 06:37:44;;;;;;;;;;;;;;;16.73;33.91;101549.25;4964721;28;1122;-44
2023/02/06 06:40:09;;;;;;;;;;;;;;;17.91;31.85;101552.44;4968636;28;1129;-46
2023/02/06 06:42:35;;;;;;;;;;;;;;;16.70;33.59;101550.59;4969827;28;1906;-48
2023/02/06 06:45:00;;;;;;;;;;;;;;;16.37;34.30;101555.13;4966086;28;1034;-48
2023/02/06 06:47:26;;;;;;;;;;;;;;;17.37;32.34;101545.06;4964149;28;1106;-46
2023/02/06 06:49:51;;;;;;;;;;;;;;;16.24;34.57;101544.50;4969153;28;1145;-48
2023/02/06 06:52:16;;;;;;;;;;;;;;;17.28;33.02;101529.03;4971403;28;1034;-49
2023/02/06 06:54:44;;;;;;;;;;;;;;;16.67;33.65;101540.13;4964622;28;852;-50
2023/02/06 06:57:10;;;;;;;;;;;;;;;15.98;35.06;101533.16;4964871;28;1932;-47
2023/02/06 06:59:35;;;;;;;;;;;;;;;17.30;32.65;101544.44;4965035;28;1121;-47
2023/02/06 07:02:01;;;;;;;;;;;;;;;16.05;34.72;101560.41;4963468;28;1993;-48
2023/02/06 07:04:28;;;;;;;;;;;;;;;17.63;32.21;101570.88;4977120;28;1026;-49
2023/02/06 07:06:54;;;;;;;;;;;;;;;17.06;33.12;101584.03;4974931;28;948;-49
2023/02/06 07:09:19;;;;;;;;;;;;;;;16.16;35.03;101588.81;4965200;28;983;-45
2023/02/06 07:11:45;;;;;;;;;;;;;;;15.95;35.38;101599.50;4976534;28;1065;-52
2023/02/06 07:14:10;;;;;;;;;;;;;;;17.06;33.46;101606.00;4969148;28;1121;-49
2023/02/06 07:16:36;;;;;;;;;;;;;;;15.89;35.47;101593.09;4957151;28;1030;-48
2023/02/06 07:19:01;;;;;;;;;;;;;;;17.21;33.08;101607.31;4969545;28;1006;-44
2023/02/06 07:21:26;;;;;;;;;;;;;;;17.05;33.39;101612.59;4958112;28;1971;-47
2023/02/06 07:23:52;;;;;;;;;;;;;;;16.11;35.08;101606.03;4961121;28;1030;-49
2023/02/06 07:26:17;;;;;;;;;;;;;;;17.36;32.89;101623.97;4958813;28;1110;-47
2023/02/06 07:28:43;;;;;;;;;;;;;;;16.28;34.72;101629.91;4969010;28;1805;-50
2023/02/06 07:31:08;;;;;;;;;;;;;;;17.39;33.08;101645.44;4966288;28;894;-49
2023/02/06 07:33:34;;;;;;;;;;;;;;;17.33;32.95;101654.69;4966111;28;1110;-46
2023/02/06 07:36:00;;;;;;;;;;;;;;;16.30;34.68;101664.25;4974397;28;1097;-46
2023/02/06 07:38:26;;;;;;;;;;;;;;;17.02;33.90;101692.78;4965850;28;1081;-45
2023/02/06 07:40:51;;;;;;;;;;;;;;;16.40;34.76;101683.63;4963132;28;1157;-46
2023/02/06 07:43:17;;;;;;;;;;;;;;;15.86;35.71;101694.22;4966996;28;1973;-45
2023/02/06 07:45:42;;;;;;;;;;;;;;;17.08;33.55;101689.03;4975034;28;1209;-52
2023/02/06 07:48:08;;;;;;;;;;;;;;;16.10;35.32;101694.09;4971228;28;1173;-48
2023/02/06 07:50:33;;;;;;;;;;;;;;;17.49;33.22;101721.72;4973745;28;1134;-50
2023/02/06 07:52:59;;;;;;;;;;;;;;;16.62;34.45;101706.75;4963708;28;1055;-45
2023/02/06 07:55:24;;;;;;;;;;;;;;;15.95;35.95;101711.97;4972562;28;839;-49
2023/02/06 07:57:49;;;;;;;;;;;;;;;16.30;35.35;101732.88;4967140;28;1801;-50
2023/02/06 08:00:15;;;;;;;;;;;;;;;16.28;35.11;101735.03;4976748;28;1208;-52
2023/02/06 08:02:41;;;;;;;;;;;;;;;17.09;33.73;101731.91;4979211;28;1906;-51
2023/02/06 08:05:06;;;;;;;;;;;;;;;17.94;32.07;101739.84;4977254;28;1034;-46
2023/02/06 08:07:32;;;;;;;;;;;;;;;16.40;35.21;101741.28;4966058;28;1003;-53
2023/02/06 08:09:57;;;;;;;;;;;;;;;16.08;35.70;101746.47;4959956;28;1186;-46
2023/02/06 08:12:23;;;;;;;;;;;;;;;17.17;33.94;101743.56;4959881;28;1122;-50
2023/02/06 08:14:48;;;;;;;;;;;;;;;16.11;35.89;101756.94;4960271;29;1276;-47
2023/02/06 08:17:14;;;;;;;;;;;;;;;17.70;33.22;101780.53;4960216;29;1253;-48
2023/02/06 08:19:39;;;;;;;;;;;;;;;17.04;34.14;101759.34;4962455;28;1095;-45
2023/02/06 08:22:05;;;;;;;;;;;;;;;16.21;35.65;101773.59;4958852;29;1903;-50
2023/02/06 08:24:30;;;;;;;;;;;;;;;16.87;34.56;101753.84;4959423;29;1198;-51
2023/02/06 08:26:56;;;;;;;;;;;;;;;16.31;35.52;101791.34;4964817;28;2094;-48
2023/02/06 08:29:21;;;;;;;;;;;;;;;15.84;36.37;101790.47;4960371;28;1140;-49
2023/02/06 08:31:47;;;;;;;;;;;;;;;17.18;33.89;101789.19;4957758;28;1091;-48
2023/02/06 08:34:12;;;;;;;;;;;;;;;16.42;35.30;101799.53;4959468;29;1256;-47
2023/02/06 08:36:38;;;;;;;;;;;;;;;18.21;32.43;101787.72;4972280;28;1198;-47
2023/02/06 08:39:03;;;;;;;;;;;;;;;17.15;33.91;101795.19;4959926;29;1186;-49
2023/02/06 08:41:36;;;;;;;;;;;;;;;16.35;35.49;101795.25;4958924;29;1961;-47
2023/02/06 08:44:01;;;;;;;;;;;;;;;16.04;36.15;101791.94;4957504;29;1218;-47
2023/02/06 08:46:27;;;;;;;;;;;;;;;16.83;34.97;101785.63;4959134;29;1241;-43
2023/02/06 08:49:00;;;;;;;;;;;;;;;16.25;35.82;101784.91;4969665;28;956;-48
2023/02/06 08:51:28;;;;;;;;;;;;;;;15.80;36.60;101788.47;4974142;28;970;-47
2023/02/06 08:54:00;;;;;;;;;;;;;;;17.04;34.29;101786.81;4972095;28;1153;-44
2023/02/06 08:56:26;;;;;;;;;;;;;;;15.95;36.47;101798.88;4969673;28;1113;-47
2023/02/06 08:58:52;;;;;;;;;;;;;;;17.04;34.64;101786.81;4975833;28;2079;-46
2023/02/06 09:01:18;;;;;;;;;;;;;;;16.50;35.55;101797.44;4978885;28;1037;-45
2023/02/06 09:03:43;;;;;;;;;;;;;;;17.31;34.21;101791.59;4978516;28;1910;-46
2023/02/06 09:06:09;;;;;;;;;;;;;;;18.24;32.40;101789.94;4970714;28;1015;-45
2023/02/06 09:08:34;;;;;;;;;;;;;;;16.65;35.15;101789.47;4959108;29;1217;-43
2023/02/06 09:11:06;;;;;;;;;;;;;;;16.15;36.23;101796.53;4958968;28;1252;-46
2023/02/06 09:13:32;;;;;;;;;;;;;;;17.16;34.34;101805.09;4962215;28;1014;-45
2023/02/06 09:15:57;;;;;;;;;;;;;;;16.16;35.86;101791.88;4972669;28;1050;-47
2023/02/06 09:18:23;;;;;;;;;;;;;;;15.78;36.81;101796.91;4968147;28;1109;-48
2023/02/06 09:20:49;;;;;;;;;;;;;;;16.75;34.74;101808.84;4958740;29;1368;-48
2023/02/06 09:23:15;;;;;;;;;;;;;;;15.94;36.56;101795.31;4966838;28;1988;-44
2023/02/06 09:25:41;;;;;;;;;;;;;;;16.96;34.59;101806.47;4977350;28;1069;-46
2023/02/06 09:28:06;;;;;;;;;;;;;;;16.20;35.71;101809.50;4958495;29;1900;-44
2023/02/06 09:30:32;;;;;;;;;;;;;;;16.76;35.01;101802.28;4962970;28;1118;-43
2023/02/06 09:32:57;;;;;;;;;;;;;;;17.39;33.70;101807.66;4961486;28;1260;-48
2023/02/06 09:35:23;;;;;;;;;;;;;;;16.26;35.67;101792.09;4964517;28;1052;-49
2023/02/06 09:37:48;;;;;;;;;;;;;;;16.29;36.09;101791.59;4958240;29;1201;-47
2023/02/06 09:40:14;;;;;;;;;;;;;;;16.85;34.65;101804.63;4968376;28;1070;-47
2023/02/06 09:42:39;;;;;;;;;;;;;;;16.00;36.13;101788.84;4973291;28;1910;-47
2023/02/06 09:45:11;;;;;;;;;;;;;;;17.90;33.11;101792.88;4984604;28;1219;-47
2023/02/06 09:47:38;;;;;;;;;;;;;;;16.51;35.13;101783.47;4943149;29;1079;-49
2023/02/06 09:50:06;;;;;;;;;;;;;;;15.93;36.24;101781.84;4958087;29;1221;-43
2023/02/06 09:52:31;;;;;;;;;;;;;;;16.78;35.01;101793.78;4958110;28;1044;-47
2023/02/06 09:55:09;;;;;;;;;;;;;;;16.13;36.20;101806.09;4956436;28;1225;-50
2023/02/06 09:57:38;;;;;;;;;;;;;;;18.11;32.50;101793.97;4956999;29;1785;-48
2023/02/06 10:00:12;;;;;;;;;;;;;;;16.68;35.07;101794.44;4958152;28;1264;-48
2023/02/06 10:02:56;;;;;;;;;;;;;;;16.15;36.20;101790.22;4964383;28;1916;-46
2023/02/06 10:05:22;;;;;;;;;;;;;;;16.55;35.26;101792.88;4965582;28;1174;-47
2023/02/06 10:07:51;;;;;;;;;;;;;;;15.95;36.39;101796.16;4964403;28;1465;-49
2023/02/06 10:10:34;;;;;;;;;;;;;;;15.73;36.82;101789.38;4972070;28;1421;-49
2023/02/06 10:13:02;;;;;;;;;;;;;;;16.71;35.14;101782.97;4940859;29;1205;-46
2023/02/06 10:15:46;;;;;;;;;;;;;;;16.04;36.27;101783.72;4940654;29;1154;-51
2023/02/06 10:18:13;;;;;;;;;;;;;;;17.41;33.95;101788.97;4957572;29;1161;-44
2023/02/06 10:20:47;;;;;;;;;;;;;;;17.13;34.19;101791.88;4957998;28;1088;-46
2023/02/06 10:23:14;;;;;;;;;;;;;;;16.25;35.76;101795.91;4957382;29;1970;-50
2023/02/06 10:25:47;;;;;;;;;;;;;;;17.04;34.36;101789.56;4957576;29;1063;-46
2023/02/06 10:28:20;;;;;;;;;;;;;;;16.29;35.57;101797.06;4942302;28;1965;-46
2023/02/06 10:31:18;;;;;;;;;;;;;;;16.72;35.04;101797.53;4974761;28;1045;-45
2023/02/06 10:34:02;;;;;;;;;;;;;;;16.92;34.44;101792.38;4954546;28;1374;-41
2023/02/06 10:36:46;;;;;;;;;;;;;;;16.10;36.24;101798.34;4974849;28;1030;-46
2023/02/06 10:39:14;;;;;;;;;;;;;;;17.05;34.35;101804.94;4967841;28;1049;-46
2023/02/06 10:41:46;;;;;;;;;;;;;;;16.28;35.93;101800.88;4963747;28;1903;-43
2023/02/06 10:44:18;;;;;;;;;;;;;;;15.73;36.69;101789.38;4969456;28;1435;-50
2023/02/06 10:46:47;;;;;;;;;;;;;;;16.61;35.18;101810.25;4971784;28;1166;-48
2023/02/06 10:49:31;;;;;;;;;;;;;;;16.51;35.64;101810.06;4970571;28;1137;-48
2023/02/06 10:51:57;;;;;;;;;;;;;;;18.27;32.29;101814.19;4963093;28;1110;-45
2023/02/06 10:54:39;;;;;;;;;;;;;;;16.69;35.18;101822.72;4963374;28;1236;-49
2023/02/06 10:57:10;;;;;;;;;;;;;;;16.00;36.41;101829.19;4968599;28;1833;-49
2023/02/06 10:59:39;;;;;;;;;;;;;;;17.26;34.34;101811.59;4969049;28;1114;-42
2023/02/06 11:02:11;;;;;;;;;;;;;;;16.44;35.56;101826.72;4924001;29;1908;-46
2023/02/06 11:04:41;;;;;;;;;;;;;;;16.32;36.05;101820.44;4959289;28;1194;-45
2023/02/06 11:07:07;;;;;;;;;;;;;;;17.08;34.49;101803.59;4982229;28;1002;-43
2023/02/06 11:09:33;;;;;;;;;;;;;;;17.43;33.94;101811.56;4987699;28;1110;-44
2023/02/06 11:11:58;;;;;;;;;;;;;;;18.65;31.92;101812.38;4976432;28;1038;-47
2023/02/06 11:14:29;;;;;;;;;;;;;;;17.18;34.14;101811.16;4991789;28;1104;-47
2023/02/06 11:16:56;;;;;;;;;;;;;;;16.47;35.66;101804.25;4981330;28;1125;-42
2023/02/06 11:19:22;;;;;;;;;;;;;;;16.11;36.36;101817.31;4984550;28;1148;-41
2023/02/06 11:21:49;;;;;;;;;;;;;;;16.72;35.10;101814.84;4971549;28;1906;-41
2023/02/06 11:24:15;;;;;;;;;;;;;;;16.57;35.43;101809.09;4967322;28;1185;-48
2023/02/06 11:26:41;;;;;;;;;;;;;;;17.51;33.68;101812.19;4970518;28;1068;-46
2023/02/06 11:29:16;;;;;;;;;;;;;;;18.26;32.29;101796.88;4964308;28;2348;-49
2023/02/06 11:31:49;;;;;;;;;;;;;;;16.75;35.11;101794.28;4952610;28;1058;-45
2023/02/06 11:34:25;;;;;;;;;;;;;;;16.23;35.98;101784.34;4968890;28;1113;-43
2023/02/06 11:36:52;;;;;;;;;;;;;;;15.97;36.62;101791.25;4991720;28;1093;-46
2023/02/06 11:39:22;;;;;;;;;;;;;;;17.30;34.23;101789.91;4970049;28;1073;-47
2023/02/06 11:41:55;;;;;;;;;;;;;;;16.32;35.67;101785.59;4967102;28;1973;-49
2023/02/06 11:44:22;;;;;;;;;;;;;;;15.87;36.85;101792.72;4959956;28;1476;-47
2023/02/06 11:46:48;;;;;;;;;;;;;;;16.45;35.91;101787.19;4943035;29;1269;-50
2023/02/06 11:49:22;;;;;;;;;;;;;;;16.24;35.94;101786.00;4960396;29;1399;-49
2023/02/06 11:51:50;;;;;;;;;;;;;;;15.78;36.99;101796.06;4960193;29;1257;-48
2023/02/06 11:54:27;;;;;;;;;;;;;;;17.14;34.39;101793.53;4962018;28;964;-49
2023/02/06 11:57:02;;;;;;;;;;;;;;;16.04;36.25;101803.75;4959532;28;1952;-47
2023/02/06 11:59:28;;;;;;;;;;;;;;;17.62;33.57;101803.00;4960865;28;1177;-51
2023/02/06 12:01:54;;;;;;;;;;;;;;;16.69;35.16;101785.13;4959216;29;1906;-45
2023/02/06 12:04:22;;;;;;;;;;;;;;;16.68;35.22;101797.19;4959772;29;1222;-44
2023/02/06 12:06:49;;;;;;;;;;;;;;;17.52;33.52;101811.13;4959917;29;1256;-49
2023/02/06 12:09:14;;;;;;;;;;;;;;;16.42;35.81;101802.28;4942057;29;1111;-50
2023/02/06 12:11:51;;;;;;;;;;;;;;;16.00;36.63;101802.56;4961355;28;1313;-47
2023/02/06 12:14:35;;;;;;;;;;;;;;;17.26;34.26;101799.75;4982748;28;1113;-42
2023/02/06 12:17:01;;;;;;;;;;;;;;;16.23;35.90;101798.06;4968383;28;1023;-44
2023/02/06 12:19:32;;;;;;;;;;;;;;;17.76;33.54;101804.25;4966213;28;1145;-49
2023/02/06 12:22:06;;;;;;;;;;;;;;;17.44;33.91;101804.13;4993193;28;1918;-44
2023/02/06 12:24:36;;;;;;;;;;;;;;;16.44;35.74;101810.25;4980746;28;1137;-48
2023/02/06 12:27:05;;;;;;;;;;;;;;;16.08;36.42;101804.91;4970661;28;1987;-42
2023/02/06 12:29:35;;;;;;;;;;;;;;;17.17;34.49;101795.78;4958157;29;1036;-49
2023/02/06 12:32:04;;;;;;;;;;;;;;;16.56;35.58;101804.69;4958971;28;1122;-50
2023/02/06 12:34:52;;;;;;;;;;;;;;;18.33;32.43;101813.19;4993244;28;1123;-45
2023/02/06 12:37:38;;;;;;;;;;;;;;;17.22;34.26;101820.56;4965711;28;1129;-41
2023/02/06 12:40:11;;;;;;;;;;;;;;;16.52;35.82;101812.59;4983003;28;981;-46
2023/02/06 12:42:46;;;;;;;;;;;;;;;16.90;35.02;101807.44;4956804;29;1911;-46
2023/02/06 12:45:14;;;;;;;;;;;;;;;16.56;35.46;101815.66;4945863;28;1245;-47
2023/02/06 12:47:43;;;;;;;;;;;;;;;16.58;35.70;101806.09;4942329;29;1246;-45
2023/02/06 12:50:22;;;;;;;;;;;;;;;17.50;33.83;101805.03;4942224;29;1202;-46